Time;durP1;ratioP1;P1;durP2;ratioP2;P2;SDS_P1;SDS_P2;PMS_P1;PMS_P2;Temp;Humidity;BMP_temperature;BMP_pressure;BME280_temperature;BME280_humidity;BME280_pressure;Samples;Min_cycle;Max_cycle;Signal;HPM_P1;HPM_P2
2023/01/10 00:01:34;;;;;;;50.05;30.70;;;;;;;5.62;75.50;99027.19;5052958;28;20521;-79
2023/01/10 00:04:00;;;;;;;42.58;27.52;;;;;;;6.38;75.44;99124.06;5054201;28;20025;-80
2023/01/10 00:06:25;;;;;;;36.60;25.67;;;;;;;6.71;75.87;99163.47;5054220;28;20478;-79
2023/01/10 00:08:51;;;;;;;36.38;24.50;;;;;;;6.80;76.28;99165.13;5052782;28;20029;-79
2023/01/10 00:14:00;;;;;;;37.22;24.95;;;;;;;6.94;75.72;99157.44;5054117;28;20118;-80
2023/01/10 00:16:25;;;;;;;37.05;26.55;;;;;;;6.82;75.94;99140.38;5053718;28;20029;-80
2023/01/10 00:18:51;;;;;;;37.42;27.08;;;;;;;6.86;76.14;99136.44;5053744;28;20035;-80
2023/01/10 00:21:17;;;;;;;36.47;25.90;;;;;;;7.00;75.97;99145.44;5053795;28;20032;-82
2023/01/10 00:23:43;;;;;;;33.00;25.58;;;;;;;6.75;76.03;99101.84;5053818;28;20021;-81
2023/01/10 00:26:08;;;;;;;36.30;25.88;;;;;;;7.01;75.88;99137.41;5053718;28;20028;-80
2023/01/10 00:28:34;;;;;;;35.90;24.42;;;;;;;7.10;75.49;99143.47;5053907;28;20119;-80
2023/01/10 00:31:03;;;;;;;32.78;24.48;;;;;;;6.44;75.90;99041.31;5051428;28;20094;-81
2023/01/10 00:33:30;;;;;;;32.38;24.77;;;;;;;7.36;75.62;99151.16;5053997;28;20025;-82
2023/01/10 00:35:56;;;;;;;30.90;25.00;;;;;;;7.06;75.42;99101.97;5053279;28;20550;-81
2023/01/10 00:38:22;;;;;;;30.77;21.98;;;;;;;6.99;75.58;99102.63;5075564;28;20138;-79
2023/01/10 00:40:47;;;;;;;31.02;23.15;;;;;;;7.45;75.74;99167.75;5053626;28;20032;-79
2023/01/10 00:45:56;;;;;;;26.75;20.58;;;;;;;7.20;75.46;99096.84;5053195;28;20035;-80
2023/01/10 00:48:22;;;;;;;26.58;20.60;;;;;;;6.86;75.48;99022.78;5051772;28;20033;-79
2023/01/10 00:50:47;;;;;;;23.08;19.88;;;;;;;7.44;75.26;99114.38;5053338;28;20037;-79
2023/01/10 00:53:13;;;;;;;24.10;19.05;;;;;;;7.15;75.50;99061.59;5053104;28;20021;-79
2023/01/10 00:55:39;;;;;;;24.40;19.33;;;;;;;7.52;75.52;99101.22;5053178;28;20029;-79
2023/01/10 00:58:07;;;;;;;26.10;19.77;;;;;;;7.66;75.67;99128.59;5053275;28;20510;-80
2023/01/10 01:00:32;;;;;;;25.73;20.60;;;;;;;6.72;75.27;98961.31;5053027;28;20029;-80
2023/01/10 01:02:58;;;;;;;26.67;19.63;;;;;;;7.26;75.47;99059.44;5051729;28;20040;-79
2023/01/10 01:05:23;;;;;;;24.05;19.50;;;;;;;7.11;75.12;99003.34;5053034;28;20021;-79
2023/01/10 01:07:50;;;;;;;22.50;18.70;;;;;;;7.62;75.20;99101.03;5052947;28;20025;-79
2023/01/10 01:10:25;;;;;;;23.58;19.77;;;;;;;7.82;75.56;99104.06;5053003;28;20025;-79
2023/01/10 01:12:51;;;;;;;26.40;21.00;;;;;;;7.86;74.81;99094.84;5052689;28;20124;-79
2023/01/10 01:15:16;;;;;;;25.45;19.35;;;;;;;7.12;74.83;98963.00;5052737;28;20032;-79
2023/01/10 01:17:42;;;;;;;25.92;20.73;;;;;;;7.70;75.02;99051.06;5052686;28;20103;-79
2023/01/10 01:20:08;;;;;;;26.95;20.85;;;;;;;7.24;74.68;98984.44;5052618;28;20039;-79
2023/01/10 01:22:34;;;;;;;24.67;19.80;;;;;;;7.15;74.89;98975.78;5052676;28;20411;-79
2023/01/10 01:24:59;;;;;;;24.48;18.95;;;;;;;7.90;74.86;99067.22;5052604;28;20027;-79
2023/01/10 01:27:24;;;;;;;26.80;21.63;;;;;;;7.17;75.27;98944.91;5052488;28;20532;-79
2023/01/10 01:29:50;;;;;;;28.05;22.73;;;;;;;7.67;75.07;99048.78;5052461;28;20109;-80
2023/01/10 01:32:15;;;;;;;26.70;22.05;;;;;;;8.04;75.18;99076.19;5052446;28;20025;-79
2023/01/10 01:34:41;;;;;;;28.42;22.90;;;;;;;7.73;75.48;99021.81;5051141;28;20033;-80
2023/01/10 01:37:06;;;;;;;27.15;21.23;;;;;;;7.65;75.73;98990.34;5052334;28;20043;-79
2023/01/10 01:39:31;;;;;;;26.63;21.15;;;;;;;7.67;76.19;98991.00;5052267;28;20082;-79
2023/01/10 01:41:57;;;;;;;29.27;22.38;;;;;;;7.59;76.26;98981.34;5052140;28;20095;-79
2023/01/10 01:44:28;;;;;;;26.83;21.08;;;;;;;7.38;75.89;98936.44;5052090;28;20044;-79
2023/01/10 01:47:06;;;;;;;23.67;19.88;;;;;;;7.92;76.23;99021.38;5052032;28;20090;-79
2023/01/10 01:49:37;;;;;;;27.30;20.85;;;;;;;8.09;76.10;99029.97;5052211;28;20524;-80
2023/01/10 01:52:12;;;;;;;26.98;22.38;;;;;;;7.89;75.89;99015.66;5052330;28;20100;-79
2023/01/10 01:54:38;;;;;;;24.15;21.42;;;;;;;7.30;75.66;98897.09;5050680;28;20139;-80
2023/01/10 01:57:12;;;;;;;23.70;19.85;;;;;;;8.23;75.93;99031.88;5052261;28;20055;-80
2023/01/10 01:59:44;;;;;;;23.77;19.13;;;;;;;8.01;76.11;98997.69;5052166;28;20031;-80
2023/01/10 02:02:20;;;;;;;27.42;21.58;;;;;;;8.28;75.98;99029.53;5052390;28;20029;-79
2023/01/10 02:04:57;;;;;;;27.73;22.35;;;;;;;8.22;76.18;99011.03;5051987;28;20058;-79
2023/01/10 02:07:25;;;;;;;25.45;21.60;;;;;;;8.31;76.22;99012.59;5050347;28;20035;-81
2023/01/10 02:09:56;;;;;;;23.85;20.30;;;;;;;8.16;76.15;99003.81;5051806;28;20029;-79
2023/01/10 02:12:23;;;;;;;27.35;22.05;;;;;;;7.62;76.15;98894.31;5050237;28;20139;-79
2023/01/10 02:14:50;;;;;;;23.83;20.55;;;;;;;8.38;76.30;99028.53;5051631;28;20031;-79
2023/01/10 02:17:16;;;;;;;25.42;21.58;;;;;;;8.33;76.55;99010.63;5051632;28;20025;-79
2023/01/10 02:19:55;;;;;;;25.73;22.48;;;;;;;8.37;76.41;99013.75;5050243;28;20035;-79
2023/01/10 02:22:58;;;;;;;27.00;21.73;;;;;;;8.34;76.47;99011.47;5051748;28;20035;-79
2023/01/10 02:25:45;;;;;;;23.52;20.35;;;;;;;8.32;76.06;99008.16;5050373;28;20043;-79
2023/01/10 02:28:48;;;;;;;26.58;22.20;;;;;;;8.31;76.04;99006.53;5050265;28;20409;-79
2023/01/10 02:31:16;;;;;;;26.08;21.15;;;;;;;8.26;76.43;99015.75;5051370;28;20151;-80
2023/01/10 02:34:10;;;;;;;26.63;21.65;;;;;;;7.80;75.93;98937.84;5050202;28;20112;-79
2023/01/10 02:36:51;;;;;;;29.48;22.60;;;;;;;7.72;75.89;98922.16;5051151;28;20025;-79
2023/01/10 02:39:38;;;;;;;26.20;22.48;;;;;;;8.17;76.23;98994.94;5051111;28;20033;-80
2023/01/10 02:42:10;;;;;;;27.45;20.45;;;;;;;8.01;76.21;98981.91;5051418;28;20021;-79
2023/01/10 02:44:46;;;;;;;29.95;21.80;;;;;;;8.15;75.99;98976.69;5049957;28;20490;-79
2023/01/10 02:47:13;;;;;;;26.55;21.50;;;;;;;7.32;75.84;98853.94;5051311;28;20039;-79
2023/01/10 02:49:43;;;;;;;27.33;22.58;;;;;;;7.38;76.63;98852.41;5051108;28;20078;-79
2023/01/10 02:52:11;;;;;;;25.65;22.13;;;;;;;7.80;76.00;98924.72;5050999;28;20056;-80
2023/01/10 02:54:37;;;;;;;27.40;21.83;;;;;;;7.45;76.35;98882.28;5052021;28;20029;-79
2023/01/10 02:57:08;;;;;;;26.08;22.27;;;;;;;8.15;76.01;98994.28;5055361;28;20083;-79
2023/01/10 02:59:50;;;;;;;49.13;31.08;;;;;;;8.10;76.37;98981.66;5054040;28;20067;-79
2023/01/10 03:02:43;;;;;;;57.38;34.78;;;;;;;7.98;75.99;98962.03;5053887;28;20102;-79
2023/01/10 03:05:24;;;;;;;58.80;34.45;;;;;;;7.92;76.43;98954.84;5055210;28;20485;-79
2023/01/10 03:08:02;;;;;;;61.00;36.13;;;;;;;7.89;76.42;98955.22;5053816;28;20417;-79
2023/01/10 03:10:30;;;;;;;60.00;36.42;;;;;;;7.85;76.03;98952.09;5055168;28;20111;-79
2023/01/10 03:13:11;;;;;;;76.60;41.00;;;;;;;7.63;76.44;98921.38;5053712;28;20581;-80
2023/01/10 03:15:40;;;;;;;80.90;43.37;;;;;;;7.57;76.04;98933.41;5054951;28;20409;-79
2023/01/10 03:18:17;;;;;;;83.70;43.33;;;;;;;7.70;75.70;98959.13;5054882;28;20087;-79
2023/01/10 03:20:46;;;;;;;99.43;48.60;;;;;;;7.18;75.39;98880.09;5054641;28;20025;-80
2023/01/10 03:23:14;;;;;;;94.43;44.55;;;;;;;7.01;75.58;98863.63;5053307;28;20478;-79
2023/01/10 03:25:42;;;;;;;92.18;47.00;;;;;;;7.20;75.43;98889.44;5054800;28;20488;-79
2023/01/10 03:28:14;;;;;;;96.13;50.25;;;;;;;7.15;75.61;98898.81;5054908;28;20025;-80
2023/01/10 03:30:43;;;;;;;92.53;45.38;;;;;;;7.05;75.31;98904.28;5054732;28;20032;-79
2023/01/10 03:33:12;;;;;;;94.97;47.30;;;;;;;7.08;75.96;98913.63;5053457;28;20036;-79
2023/01/10 03:35:57;;;;;;;91.32;45.50;;;;;;;7.38;75.75;98960.09;5054998;28;20063;-79
2023/01/10 03:38:52;;;;;;;92.05;46.38;;;;;;;6.97;75.29;98889.41;5054646;28;20033;-79
2023/01/10 03:41:32;;;;;;;104.22;48.28;;;;;;;7.34;75.15;98956.16;5053333;28;20112;-80
2023/01/10 03:47:12;;;;;;;106.25;49.45;;;;;;;7.26;75.18;98958.84;5054454;28;20079;-80
2023/01/10 03:49:46;;;;;;;96.93;47.42;;;;;;;7.23;75.83;98956.53;5066562;28;20048;-79
2023/01/10 03:52:15;;;;;;;126.50;55.03;;;;;;;6.84;75.68;98899.63;5060873;28;20544;-80
2023/01/10 03:54:45;;;;;;;104.10;47.10;;;;;;;6.54;75.27;98871.50;5054426;28;20394;-79
2023/01/10 03:57:16;;;;;;;94.07;45.50;;;;;;;6.46;75.91;98850.53;5053029;28;20028;-80
2023/01/10 03:59:42;;;;;;;103.15;47.78;;;;;;;6.80;75.73;98911.44;5052933;28;20067;-79
2023/01/10 04:02:07;;;;;;;107.28;51.08;;;;;;;5.45;75.65;98721.81;5052682;28;20118;-79
2023/01/10 04:04:32;;;;;;;116.22;52.80;;;;;;;6.57;76.06;98892.13;5053976;28;20025;-79
2023/01/10 04:06:58;;;;;;;99.13;47.83;;;;;;;6.38;76.15;98891.53;5054009;28;20029;-80
2023/01/10 04:09:23;;;;;;;122.55;51.65;;;;;;;6.74;75.79;98914.75;5054097;28;20025;-80
2023/01/10 04:11:49;;;;;;;103.45;48.60;;;;;;;6.05;75.89;98830.50;5053833;28;20057;-79
2023/01/10 04:14:14;;;;;;;99.28;48.90;;;;;;;6.20;76.38;98846.34;5053920;28;20064;-79
2023/01/10 04:16:39;;;;;;;132.75;53.55;;;;;;;6.69;76.46;98909.19;5053775;28;20036;-79
2023/01/10 04:19:05;;;;;;;125.88;53.08;;;;;;;6.42;76.19;98862.34;5053727;28;20490;-79
2023/01/10 04:21:30;;;;;;;110.43;50.70;;;;;;;6.21;75.85;98834.88;5053892;28;20025;-79
2023/01/10 04:23:56;;;;;;;120.57;53.80;;;;;;;6.23;76.19;98851.25;5052516;28;20052;-79
2023/01/10 04:26:21;;;;;;;116.53;50.53;;;;;;;6.71;75.80;98904.59;5053930;28;20024;-79
2023/01/10 04:28:46;;;;;;;116.82;50.28;;;;;;;6.88;76.16;98923.72;5053784;28;20033;-79
2023/01/10 04:31:12;;;;;;;139.13;55.95;;;;;;;6.37;75.85;98847.94;5053684;28;20082;-79
2023/01/10 04:33:39;;;;;;;122.45;55.20;;;;;;;5.14;76.31;98640.53;5052327;28;20410;-79
2023/01/10 04:36:05;;;;;;;142.15;57.58;;;;;;;6.47;75.81;98857.44;5052203;28;20514;-79
2023/01/10 04:38:30;;;;;;;142.90;56.78;;;;;;;6.35;76.45;98870.88;5052103;28;20024;-79
2023/01/10 04:40:56;;;;;;;165.18;62.70;;;;;;;5.85;76.24;98800.34;5053394;28;20111;-79
2023/01/10 04:43:23;;;;;;;132.70;53.65;;;;;;;6.36;76.46;98883.00;5053268;28;20036;-79
2023/01/10 04:45:49;;;;;;;140.52;58.63;;;;;;;6.76;76.35;98922.44;5051951;28;20031;-79
2023/01/10 04:48:15;;;;;;;150.15;59.10;;;;;;;6.22;76.15;98860.09;5051917;28;20020;-79
2023/01/10 04:50:40;;;;;;;142.68;57.53;;;;;;;6.20;76.28;98869.13;5053040;28;20025;-79
2023/01/10 04:53:06;;;;;;;135.95;55.60;;;;;;;6.16;76.54;98866.00;5052861;28;20068;-79
2023/01/10 04:55:32;;;;;;;166.15;63.47;;;;;;;6.68;76.42;98920.63;5052907;28;20425;-79
2023/01/10 04:57:59;;;;;;;156.38;59.92;;;;;;;6.01;76.43;98831.00;5052958;28;20025;-80
2023/01/10 05:00:24;;;;;;;155.30;57.33;;;;;;;6.12;76.57;98835.88;5053124;28;20033;-79
2023/01/10 05:02:55;;;;;;;193.15;66.18;;;;;;;6.26;76.86;98857.97;5053161;28;20516;-79
2023/01/10 05:05:20;;;;;;;158.30;60.85;;;;;;;6.26;76.56;98877.13;5053129;28;20016;-79
2023/01/10 05:07:46;;;;;;;163.23;64.15;;;;;;;6.33;76.75;98877.28;5053267;28;20028;-79
2023/01/10 05:10:12;;;;;;;158.20;65.88;;;;;;;5.96;76.01;98818.38;5052959;28;20489;-80
2023/01/10 05:12:37;;;;;;;152.43;64.53;;;;;;;5.69;76.25;98772.38;5052660;28;20053;-79
2023/01/10 05:15:03;;;;;;;151.95;64.97;;;;;;;6.21;76.22;98871.56;5052607;28;20032;-79
2023/01/10 05:17:29;;;;;;;151.13;66.05;;;;;;;5.78;76.89;98770.53;5052270;28;20028;-80
2023/01/10 05:19:54;;;;;;;145.40;65.03;;;;;;;5.88;76.77;98780.84;5052574;28;20528;-79
2023/01/10 05:22:19;;;;;;;164.52;66.63;;;;;;;6.49;76.83;98873.81;5052543;28;20029;-79
2023/01/10 05:24:45;;;;;;;151.77;67.20;;;;;;;6.42;76.64;98851.88;5052470;28;20078;-79
2023/01/10 05:27:10;;;;;;;151.88;63.28;;;;;;;6.15;76.71;98811.97;5052402;28;20029;-79
2023/01/10 05:29:36;;;;;;;154.05;62.83;;;;;;;6.18;76.40;98813.44;5051126;28;20035;-79
2023/01/10 05:32:01;;;;;;;152.85;60.33;;;;;;;6.73;76.58;98889.50;5051009;28;20036;-79
2023/01/10 05:34:27;;;;;;;156.43;63.70;;;;;;;6.30;76.35;98830.44;5052288;28;20033;-79
2023/01/10 05:36:52;;;;;;;160.70;62.63;;;;;;;6.46;75.99;98846.13;5052321;28;20489;-80
2023/01/10 05:39:18;;;;;;;161.02;60.92;;;;;;;6.81;75.56;98889.47;5052152;28;20060;-79
2023/01/10 05:41:43;;;;;;;154.52;63.88;;;;;;;6.35;75.96;98815.00;5052541;28;20021;-79
2023/01/10 05:44:09;;;;;;;198.93;71.90;;;;;;;6.31;75.75;98790.94;5052280;28;20502;-80
2023/01/10 05:46:34;;;;;;;190.18;72.25;;;;;;;6.58;76.00;98829.03;5052191;28;20079;-79
2023/01/10 05:49:00;;;;;;;194.18;69.82;;;;;;;6.80;76.10;98885.22;5052189;28;20104;-80
2023/01/10 05:51:25;;;;;;;178.20;67.07;;;;;;;6.22;76.12;98785.91;5050820;28;20025;-80
2023/01/10 05:53:51;;;;;;;179.60;68.25;;;;;;;6.79;76.13;98893.25;5050826;28;20025;-79
2023/01/10 05:56:16;;;;;;;192.80;74.65;;;;;;;6.11;76.51;98792.31;5052021;28;20028;-79
2023/01/10 05:58:42;;;;;;;181.95;74.13;;;;;;;6.37;76.81;98840.06;5052149;28;20037;-79
2023/01/10 06:01:08;;;;;;;195.82;76.88;;;;;;;6.21;76.74;98823.56;5050811;28;20032;-79
2023/01/10 06:03:33;;;;;;;201.93;78.47;;;;;;;6.38;76.74;98839.09;5050748;28;20490;-80
2023/01/10 06:05:59;;;;;;;221.65;84.47;;;;;;;6.60;76.47;98849.84;5051825;28;20079;-81
2023/01/10 06:08:24;;;;;;;228.80;86.25;;;;;;;6.07;76.78;98741.22;5051827;28;20391;-80
2023/01/10 06:10:50;;;;;;;222.98;82.50;;;;;;;6.99;76.09;98886.59;5050306;28;20029;-79
2023/01/10 06:13:15;;;;;;;222.27;84.93;;;;;;;7.02;76.92;98886.25;5051544;28;20045;-79
2023/01/10 06:15:41;;;;;;;202.57;78.07;;;;;;;7.04;76.52;98888.72;5051546;28;20020;-80
2023/01/10 06:18:07;;;;;;;218.57;82.00;;;;;;;6.65;76.23;98834.41;5051905;28;20032;-80
2023/01/10 06:20:33;;;;;;;176.45;74.10;;;;;;;6.77;76.01;98796.34;5050235;28;20452;-79
2023/01/10 06:23:01;;;;;;;215.55;80.80;;;;;;;7.31;75.97;98860.16;5051687;28;20029;-80
2023/01/10 06:25:28;;;;;;;209.05;78.82;;;;;;;6.79;75.98;98762.88;5051457;28;20017;-80
2023/01/10 06:27:53;;;;;;;218.00;82.38;;;;;;;6.85;75.90;98777.94;5051255;28;20417;-80
2023/01/10 06:30:19;;;;;;;224.63;84.32;;;;;;;6.31;75.97;98678.22;5050516;28;20021;-80
2023/01/10 06:32:44;;;;;;;213.20;82.03;;;;;;;6.77;75.70;98775.34;5051276;28;20494;-80
2023/01/10 06:35:10;;;;;;;200.30;78.07;;;;;;;7.27;76.34;98840.50;5050786;28;20037;-80
2023/01/10 06:37:35;;;;;;;204.50;81.30;;;;;;;6.82;76.57;98770.41;5049682;28;20040;-80
2023/01/10 06:40:01;;;;;;;201.68;80.53;;;;;;;6.59;76.11;98759.03;5066713;28;20024;-82
2023/01/10 06:42:26;;;;;;;219.10;84.25;;;;;;;6.98;76.26;98827.22;5057314;28;20033;-79
2023/01/10 06:44:52;;;;;;;211.25;86.93;;;;;;;5.26;76.33;98558.13;5046386;28;20040;-80
2023/01/10 06:47:17;;;;;;;213.57;89.65;;;;;;;7.08;76.32;98848.81;5046504;28;20525;-80
2023/01/10 06:49:42;;;;;;;207.77;87.50;;;;;;;6.47;75.99;98752.53;5048745;28;20037;-80
2023/01/10 06:52:08;;;;;;;203.43;80.70;;;;;;;6.34;75.49;98737.34;5051472;28;20477;-80
2023/01/10 06:54:33;;;;;;;187.63;75.78;;;;;;;6.99;75.67;98841.97;5051219;28;20521;-80
2023/01/10 06:56:59;;;;;;;202.13;81.22;;;;;;;7.08;75.40;98856.69;5046594;28;20033;-80
2023/01/10 06:59:24;;;;;;;226.73;95.47;;;;;;;6.53;75.79;98775.44;5049490;28;20067;-80
2023/01/10 07:01:50;;;;;;;221.55;93.25;;;;;;;6.96;75.63;98832.66;5050818;28;20421;-80
2023/01/10 07:04:15;;;;;;;227.57;93.93;;;;;;;7.06;75.46;98837.69;5051021;28;20052;-80
2023/01/10 07:06:41;;;;;;;218.50;90.60;;;;;;;6.40;75.91;98728.81;5049089;28;20025;-80
2023/01/10 07:09:06;;;;;;;204.80;85.50;;;;;;;6.40;75.45;98728.81;5050882;28;20112;-80
2023/01/10 07:11:33;;;;;;;214.02;86.78;;;;;;;7.13;75.61;98845.69;5049368;28;20033;-80
2023/01/10 07:14:02;;;;;;;208.57;88.95;;;;;;;6.78;75.18;98797.97;5049715;28;20032;-80
2023/01/10 07:16:27;;;;;;;206.77;86.40;;;;;;;7.13;75.44;98833.38;5047406;28;20083;-79
2023/01/10 07:18:53;;;;;;;200.55;82.82;;;;;;;6.47;75.00;98742.88;5050361;28;20033;-80
2023/01/10 07:21:18;;;;;;;217.25;90.97;;;;;;;7.17;74.97;98836.47;5048558;28;20074;-80
2023/01/10 07:23:51;;;;;;;216.05;95.18;;;;;;;7.13;75.52;98824.69;5048913;28;20028;-80
2023/01/10 07:26:18;;;;;;;217.13;97.75;;;;;;;6.30;75.35;98679.19;5049226;28;20018;-78
2023/01/10 07:28:51;;;;;;;242.65;118.72;;;;;;;6.88;75.25;98761.03;5049848;28;20502;-80
2023/01/10 07:31:18;;;;;;;240.75;117.65;;;;;;;7.24;75.20;98790.97;5044278;28;20021;-80
2023/01/10 07:33:44;;;;;;;258.35;123.60;;;;;;;5.65;75.70;98527.53;5041461;28;20021;-80
2023/01/10 07:36:09;;;;;;;259.67;124.78;;;;;;;7.31;76.08;98767.44;5047599;28;20449;-79
2023/01/10 07:38:36;;;;;;;244.65;120.72;;;;;;;7.31;75.45;98764.81;5048429;28;20056;-80
2023/01/10 07:41:02;;;;;;;250.80;123.72;;;;;;;6.49;75.80;98630.75;5052478;28;20024;-80
2023/01/10 07:43:27;;;;;;;255.18;129.18;;;;;;;7.39;75.91;98764.75;5050817;28;20019;-80
2023/01/10 07:45:53;;;;;;;259.50;129.05;;;;;;;6.39;75.70;98606.56;5054593;28;20021;-80
2023/01/10 07:48:18;;;;;;;263.00;136.45;;;;;;;6.73;75.67;98648.16;5052396;28;20417;-79
2023/01/10 07:50:44;;;;;;;236.45;114.80;;;;;;;6.64;75.60;98623.75;5052452;28;20036;-80
2023/01/10 07:53:09;;;;;;;237.20;117.93;;;;;;;6.60;76.00;98605.94;5048088;28;20059;-80
2023/01/10 07:55:38;;;;;;;223.70;111.45;;;;;;;7.27;75.86;98719.72;5037684;28;20034;-79
2023/01/10 07:58:09;;;;;;;218.73;110.38;;;;;;;7.35;75.95;98726.72;5041107;28;20020;-79
2023/01/10 08:00:34;;;;;;;235.93;121.07;;;;;;;7.00;76.07;98644.16;5051562;28;20029;-80
2023/01/10 08:03:00;;;;;;;251.40;126.22;;;;;;;7.06;76.26;98659.19;5066246;28;20082;-81
2023/01/10 08:05:25;;;;;;;245.73;122.53;;;;;;;7.47;75.79;98706.94;5046240;28;20018;-80
2023/01/10 08:07:51;;;;;;;245.23;125.32;;;;;;;7.19;76.02;98676.97;5052640;28;20028;-79
2023/01/10 08:10:16;;;;;;;201.27;109.65;;;;;;;7.58;76.31;98737.22;5050273;28;20131;-80
2023/01/10 08:12:42;;;;;;;223.02;118.53;;;;;;;7.44;76.40;98720.44;5052287;28;20053;-83
2023/01/10 08:15:08;;;;;;;233.52;112.63;;;;;;;7.59;76.93;98720.44;5051286;28;20112;-83
2023/01/10 08:17:34;;;;;;;222.30;112.05;;;;;;;7.69;76.22;98728.88;5047135;28;20033;-82
2023/01/10 08:19:59;;;;;;;235.88;112.05;;;;;;;7.02;76.48;98621.19;5046686;28;20414;-83
2023/01/10 08:22:25;;;;;;;236.15;119.20;;;;;;;6.45;76.52;98563.91;5045150;28;20498;-81
2023/01/10 08:24:50;;;;;;;240.93;112.72;;;;;;;7.75;76.27;98729.97;5051814;28;20542;-81
2023/01/10 08:27:16;;;;;;;235.50;110.55;;;;;;;7.07;76.62;98612.78;5051074;28;20028;-80
2023/01/10 08:29:41;;;;;;;212.45;102.82;;;;;;;7.01;77.02;98615.13;5051784;28;20017;-82
2023/01/10 08:32:07;;;;;;;208.98;100.10;;;;;;;7.77;77.30;98722.75;5050935;28;20032;-80
2023/01/10 08:34:32;;;;;;;219.23;109.53;;;;;;;7.30;77.68;98661.59;5052457;28;20035;-80
2023/01/10 08:36:59;;;;;;;187.30;93.38;;;;;;;7.27;77.87;98634.88;5049718;28;20430;-80
2023/01/10 08:39:29;;;;;;;170.50;84.57;;;;;;;7.49;77.55;98652.41;5049690;28;20454;-81
2023/01/10 08:41:54;;;;;;;175.05;86.88;;;;;;;7.86;77.65;98709.31;5047819;28;20029;-80
2023/01/10 08:44:20;;;;;;;185.50;92.53;;;;;;;7.88;77.72;98683.69;5047676;28;20047;-81
2023/01/10 08:46:45;;;;;;;187.55;82.43;;;;;;;7.50;77.80;98601.53;5050098;28;20051;-80
2023/01/10 08:49:11;;;;;;;190.48;84.63;;;;;;;7.31;78.30;98552.16;5051704;28;20078;-79
2023/01/10 08:51:36;;;;;;;167.75;77.97;;;;;;;7.14;78.38;98516.56;5046500;28;20417;-79
2023/01/10 08:54:02;;;;;;;146.63;73.38;;;;;;;8.11;79.26;98659.91;5037610;28;20039;-79
2023/01/10 08:56:27;;;;;;;136.93;68.13;;;;;;;7.93;78.87;98609.53;5035945;28;20510;-80
2023/01/10 08:58:52;;;;;;;123.47;60.35;;;;;;;7.88;78.75;98606.66;5032377;28;20028;-80
2023/01/10 09:01:18;;;;;;;106.00;57.33;;;;;;;8.09;79.06;98626.91;5036000;28;20032;-81
2023/01/10 09:03:43;;;;;;;101.03;51.35;;;;;;;8.28;78.72;98639.50;5037563;28;20032;-79
2023/01/10 09:06:09;;;;;;;85.40;46.10;;;;;;;7.80;79.22;98543.69;5034797;28;20024;-81
2023/01/10 09:08:36;;;;;;;77.60;45.97;;;;;;;8.37;79.58;98619.19;5033376;28;20044;-79
2023/01/10 09:11:01;;;;;;;61.47;40.53;;;;;;;8.38;79.96;98605.84;5030132;28;20497;-80
2023/01/10 09:13:28;;;;;;;57.15;35.05;;;;;;;7.71;80.35;98493.06;5036377;28;20140;-80
2023/01/10 09:15:54;;;;;;;50.50;33.97;;;;;;;8.48;79.97;98597.66;5035633;28;20033;-79
2023/01/10 09:18:19;;;;;;;52.88;32.63;;;;;;;8.21;81.24;98559.72;5041423;28;20035;-81
2023/01/10 09:20:45;;;;;;;48.45;31.98;;;;;;;8.16;81.09;98535.78;5038945;28;20056;-79
2023/01/10 09:23:18;;;;;;;46.08;30.30;;;;;;;8.64;81.41;98607.13;5033106;28;20114;-81
2023/01/10 09:25:45;;;;;;;46.58;29.52;;;;;;;8.70;81.88;98622.97;5052887;28;20060;-81
2023/01/10 09:28:11;;;;;;;40.08;27.88;;;;;;;8.28;82.25;98535.13;5045629;28;20031;-81
2023/01/10 09:30:36;;;;;;;39.97;27.83;;;;;;;8.74;82.14;98594.47;5040639;28;20100;-82
2023/01/10 09:33:02;;;;;;;39.83;28.52;;;;;;;8.21;82.08;98501.88;5048906;28;20029;-83
2023/01/10 09:35:30;;;;;;;42.10;30.17;;;;;;;8.11;82.42;98480.31;5051601;28;20094;-82
2023/01/10 09:37:57;;;;;;;40.65;29.67;;;;;;;8.35;83.09;98513.38;5036422;28;20076;-80
2023/01/10 09:40:46;;;;;;;47.25;32.08;;;;;;;8.80;82.96;98576.09;5048976;28;20085;-82
2023/01/10 09:43:39;;;;;;;40.65;30.67;;;;;;;8.77;83.11;98568.56;5045263;28;20055;-81
2023/01/10 09:46:25;;;;;;;42.70;29.15;;;;;;;8.78;82.74;98562.31;5047383;28;20028;-82
2023/01/10 09:49:14;;;;;;;43.10;31.48;;;;;;;8.32;82.91;98487.41;5050906;28;20497;-83
2023/01/10 09:51:46;;;;;;;43.90;30.35;;;;;;;8.45;83.33;98504.16;5052686;28;20569;-82
2023/01/10 09:54:20;;;;;;;;;;;;;;;8.81;83.19;98543.50;5066885;28;20067;-79
2023/01/10 09:56:46;;;;;;;36.50;24.23;;;;;;;8.17;83.78;98430.44;5069233;28;19916;-80
2023/01/10 09:59:19;;;;;;;32.33;24.73;;;;;;;9.03;84.04;98554.00;5070922;28;20030;-79
2023/01/10 10:01:49;;;;;;;34.17;26.63;;;;;;;9.09;85.11;98529.53;5069760;28;20047;-82
2023/01/10 10:04:33;;;;;;;33.05;23.83;;;;;;;8.76;85.40;98450.34;5067034;28;20024;-80
2023/01/10 10:06:59;;;;;;;36.53;24.45;;;;;;;8.88;85.71;98441.69;5075494;28;20492;-80
2023/01/10 10:09:29;;;;;;;38.15;28.50;;;;;;;8.88;85.61;98423.28;5068832;28;20024;-80
2023/01/10 10:12:09;;;;;;;36.83;26.55;;;;;;;9.59;86.32;98502.03;5070904;28;20041;-81
2023/01/10 10:14:41;;;;;;;31.63;24.92;;;;;;;9.45;85.66;98468.72;5071328;28;20020;-81
2023/01/10 10:17:12;;;;;;;30.73;24.10;;;;;;;9.75;85.84;98506.16;5068308;28;20029;-80
2023/01/10 10:20:17;;;;;;;31.20;23.35;;;;;;;9.82;84.85;98494.63;5062754;28;20037;-81
2023/01/10 10:23:06;;;;;;;30.27;23.50;;;;;;;9.83;85.17;98477.81;5068145;28;20024;-81
2023/01/10 10:26:10;;;;;;;30.38;24.98;;;;;;;9.54;84.55;98442.00;5068999;28;20028;-82
2023/01/10 10:28:54;;;;;;;33.83;24.90;;;;;;;9.75;84.59;98485.88;5055045;28;20063;-80
2023/01/10 10:31:40;;;;;;;32.55;23.73;;;;;;;9.73;84.46;98468.66;5068616;28;20059;-80
2023/01/10 10:34:32;;;;;;;33.58;25.10;;;;;;;9.73;84.28;98469.47;5067843;28;20028;-81
2023/01/10 10:37:09;;;;;;;33.35;24.10;;;;;;;9.27;84.26;98386.81;5064534;28;20027;-82
2023/01/10 10:39:37;;;;;;;33.50;23.88;;;;;;;9.74;84.30;98451.81;5068683;28;20109;-80
2023/01/10 10:42:03;;;;;;;37.92;25.88;;;;;;;9.74;84.78;98443.91;5067411;28;20029;-83
2023/01/10 10:44:44;;;;;;;37.03;26.80;;;;;;;9.69;84.38;98428.69;5067661;28;20065;-81
2023/01/10 10:47:15;;;;;;;34.92;26.42;;;;;;;9.69;84.40;98423.44;5068279;28;20031;-83
2023/01/10 10:49:48;;;;;;;38.83;30.58;;;;;;;9.20;84.51;98363.91;5069699;28;20055;-82
2023/01/10 10:52:34;;;;;;;37.92;28.52;;;;;;;9.43;84.59;98362.75;5087434;28;20105;-82
2023/01/10 10:55:02;;;;;;;43.03;32.85;;;;;;;8.21;84.70;98160.09;5077739;28;20100;-83
2023/01/10 10:57:30;;;;;;;37.95;31.30;;;;;;;9.01;84.65;98279.59;5070000;28;20437;-82
2023/01/10 10:59:57;;;;;;;33.33;26.05;;;;;;;9.34;84.86;98377.09;5070294;28;20514;-82
2023/01/10 11:02:26;;;;;;;38.25;28.02;;;;;;;9.75;85.09;98411.28;5065843;28;20029;-82
2023/01/10 11:04:55;;;;;;;45.10;32.85;;;;;;;9.74;85.44;98415.72;5057674;28;20052;-82
2023/01/10 11:07:22;;;;;;;31.35;23.45;;;;;;;9.50;85.24;98447.88;5069949;28;20104;-83
2023/01/10 11:12:37;;;;;;;22.80;18.40;;;;;;;8.93;84.25;98388.50;5078558;28;20051;-82
2023/01/10 11:15:03;;;;;;;25.27;19.85;;;;;;;8.93;84.27;98382.44;5086272;28;20032;-81
2023/01/10 11:17:30;;;;;;;24.10;17.75;;;;;;;9.02;84.27;98426.00;5073070;28;20096;-80
2023/01/10 11:20:16;;;;;;;24.50;18.73;;;;;;;8.97;83.89;98405.53;5076092;28;20580;-81
2023/01/10 11:22:52;;;;;;;22.75;17.15;;;;;;;8.64;84.23;98359.78;5085231;28;20048;-80
2023/01/10 11:25:20;;;;;;;30.73;21.73;;;;;;;8.94;84.50;98366.44;5073176;28;20024;-83
2023/01/10 11:27:52;;;;;;;26.20;21.00;;;;;;;8.95;84.42;98364.63;5074612;28;20032;-86
2023/01/10 11:30:22;;;;;;;24.63;19.75;;;;;;;8.55;84.56;98307.31;5093396;28;20111;-80
2023/01/10 11:32:54;;;;;;;30.02;22.65;;;;;;;8.95;84.70;98341.75;5082082;28;20489;-82
2023/01/10 11:35:35;;;;;;;26.83;21.13;;;;;;;8.87;84.46;98333.97;5074429;28;20063;-81
2023/01/10 11:38:05;;;;;;;31.38;25.17;;;;;;;8.95;84.36;98344.38;5054758;28;20104;-85
2023/01/10 11:40:37;;;;;;;38.40;30.55;;;;;;;8.98;84.53;98351.06;5054635;28;20108;-84
2023/01/10 11:43:25;;;;;;;39.17;29.38;;;;;;;8.97;84.90;98381.84;5088003;28;20035;-81